createdAt,value
2019-05-07T00:00:32.890Z,26.42
2019-05-07T00:03:03.332Z,20.23
2019-05-07T00:05:33.183Z,22.10
2019-05-07T00:08:02.971Z,25.27
2019-05-07T00:10:33.171Z,23.27
2019-05-07T00:13:02.275Z,22.45
2019-05-07T00:15:32.822Z,25.65
2019-05-07T00:18:02.970Z,22.07
2019-05-07T00:20:32.539Z,29.40
2019-05-07T00:23:02.751Z,27.37
2019-05-07T00:25:32.781Z,24.65
2019-05-07T00:28:02.583Z,22.20
2019-05-07T00:30:32.972Z,30.00
2019-05-07T00:33:02.582Z,27.73
2019-05-07T00:35:35.200Z,26.57
2019-05-07T00:38:08.027Z,23.18
2019-05-07T00:40:43.614Z,21.48
2019-05-07T00:43:13.482Z,20.88
2019-05-07T00:45:46.102Z,26.70
2019-05-07T00:48:14.317Z,25.82
2019-05-07T00:50:44.178Z,24.50
2019-05-07T00:53:13.106Z,20.95
2019-05-07T00:55:42.325Z,25.32
2019-05-07T00:58:13.082Z,22.60
2019-05-07T01:00:42.041Z,23.80
2019-05-07T01:03:12.614Z,21.07
2019-05-07T01:05:40.376Z,27.70
2019-05-07T01:08:08.600Z,21.10
2019-05-07T01:10:36.826Z,26.30
2019-05-07T01:13:05.048Z,28.10
2019-05-07T01:15:34.618Z,29.52
2019-05-07T01:18:03.177Z,22.62
2019-05-07T01:20:32.958Z,25.75
2019-05-07T01:23:02.648Z,24.37
2019-05-07T01:25:32.848Z,23.45
2019-05-07T01:28:02.618Z,22.50
2019-05-07T01:30:32.451Z,27.70
2019-05-07T01:33:02.896Z,21.57
2019-05-07T01:35:32.805Z,27.07
2019-05-07T01:38:02.999Z,22.00
2019-05-07T01:40:32.362Z,22.15
2019-05-07T01:43:02.549Z,25.25
2019-05-07T01:45:43.203Z,29.37
2019-05-07T01:48:04.188Z,23.07
2019-05-07T01:50:32.257Z,28.87
2019-05-07T01:53:00.487Z,25.25
2019-05-07T01:55:28.704Z,22.15
2019-05-07T01:57:56.905Z,27.75
2019-05-07T02:00:25.139Z,29.70
2019-05-07T02:02:54.978Z,29.27
2019-05-07T02:05:32.654Z,31.50
2019-05-07T02:08:02.951Z,27.25
2019-05-07T02:13:02.286Z,26.48
2019-05-07T02:15:32.288Z,27.60
2019-05-07T02:18:01.983Z,29.25
2019-05-07T02:20:32.141Z,31.68
2019-05-07T02:23:02.576Z,31.65
2019-05-07T02:25:32.540Z,31.05
2019-05-07T02:28:02.157Z,25.97
2019-05-07T02:30:30.630Z,25.95
2019-05-07T02:32:58.872Z,23.18
2019-05-07T02:35:27.188Z,31.52
2019-05-07T02:37:57.214Z,23.95
2019-05-07T02:40:27.094Z,26.68
2019-05-07T02:42:55.329Z,25.40
2019-05-07T02:45:25.186Z,27.67
2019-05-07T02:47:53.420Z,30.77
2019-05-07T02:50:23.263Z,28.12
2019-05-07T02:52:53.892Z,27.47
2019-05-07T02:58:03.555Z,24.72
2019-05-07T03:00:33.380Z,29.85
2019-05-07T03:03:04.057Z,24.02
2019-05-07T03:05:34.881Z,23.15
2019-05-07T03:08:03.351Z,24.12
2019-05-07T03:10:34.085Z,21.65
2019-05-07T03:13:02.989Z,25.80
2019-05-07T03:15:33.186Z,23.30
2019-05-07T03:18:03.384Z,27.62
2019-05-07T03:20:36.881Z,27.30
2019-05-07T03:23:05.494Z,23.00
2019-05-07T03:25:35.341Z,28.00
2019-05-07T03:28:04.388Z,27.10
2019-05-07T03:30:37.381Z,29.37
2019-05-07T03:33:07.873Z,28.35
2019-05-07T03:35:38.307Z,30.40
2019-05-07T03:38:06.643Z,28.95
2019-05-07T03:40:36.141Z,29.23
2019-05-07T03:43:06.059Z,27.15
2019-05-07T03:45:38.960Z,28.57
2019-05-07T03:48:14.531Z,32.88
2019-05-07T03:50:43.333Z,24.30
2019-05-07T03:53:14.175Z,27.87
2019-05-07T03:55:44.630Z,26.30
2019-05-07T03:58:14.624Z,27.75
2019-05-07T04:00:44.157Z,25.40
2019-05-07T04:03:13.958Z,28.90
2019-05-07T04:05:43.294Z,29.65
2019-05-07T04:08:13.159Z,29.80
2019-05-07T04:10:44.263Z,32.15
2019-05-07T04:13:13.318Z,32.23
2019-05-07T04:15:43.955Z,27.85
2019-05-07T04:18:13.080Z,23.45
2019-05-07T04:20:43.593Z,27.10
2019-05-07T04:23:13.850Z,28.95
2019-05-07T04:25:48.742Z,28.32
2019-05-07T04:28:23.533Z,28.65
2019-05-07T04:30:53.307Z,23.92
2019-05-07T04:33:25.965Z,24.40
2019-05-07T04:36:02.827Z,22.10
2019-05-07T04:38:33.442Z,22.42
2019-05-07T04:41:03.819Z,26.80
2019-05-07T04:43:33.595Z,23.62
2019-05-07T04:46:03.274Z,22.48
2019-05-07T04:48:33.760Z,26.42
2019-05-07T04:51:03.500Z,26.00
2019-05-07T04:53:32.856Z,24.18
2019-05-07T04:56:03.334Z,26.73
2019-05-07T04:58:33.845Z,30.23
2019-05-07T05:01:03.239Z,23.87
2019-05-07T05:03:33.979Z,29.45
2019-05-07T05:06:02.696Z,27.62
2019-05-07T05:08:32.559Z,27.62
2019-05-07T05:11:03.383Z,25.65
2019-05-07T05:13:32.964Z,26.07
2019-05-07T05:16:02.604Z,27.22
2019-05-07T05:18:32.811Z,25.07
2019-05-07T05:21:17.403Z,27.10
2019-05-07T05:23:47.280Z,31.02
2019-05-07T05:26:15.483Z,26.62
2019-05-07T05:28:43.700Z,28.57
2019-05-07T05:31:12.652Z,29.65
2019-05-07T05:33:41.960Z,26.60
2019-05-07T05:36:12.467Z,26.48
2019-05-07T05:38:42.360Z,27.60
2019-05-07T05:41:12.295Z,27.58
2019-05-07T05:43:42.589Z,30.43
2019-05-07T05:46:12.528Z,26.40
2019-05-07T05:48:42.533Z,26.33
2019-05-07T05:51:24.537Z,28.90
2019-05-07T05:54:01.914Z,23.65
2019-05-07T05:56:34.308Z,30.95
2019-05-07T05:59:06.928Z,26.90
2019-05-07T06:01:52.302Z,23.40
2019-05-07T06:04:25.100Z,26.97
2019-05-07T06:07:14.044Z,25.23
2019-05-07T06:09:58.852Z,24.27
2019-05-07T06:12:37.508Z,29.50
2019-05-07T06:15:13.949Z,23.62
2019-05-07T06:17:59.967Z,24.95
2019-05-07T06:20:35.752Z,24.57
2019-05-07T06:23:17.573Z,24.72
2019-05-07T06:25:47.432Z,27.00
2019-05-07T06:28:15.661Z,24.35
2019-05-07T06:30:43.882Z,23.98
2019-05-07T06:33:12.545Z,28.57
2019-05-07T06:35:42.897Z,30.60
2019-05-07T06:38:12.444Z,29.82
2019-05-07T06:40:52.007Z,28.38
2019-05-07T06:43:25.049Z,33.40
2019-05-07T06:45:57.883Z,29.82
2019-05-07T06:48:38.065Z,30.37
2019-05-07T06:50:59.593Z,32.03
2019-05-07T06:53:28.460Z,27.90
2019-05-07T06:55:57.900Z,27.35
2019-05-07T06:58:41.775Z,26.82
2019-05-07T07:01:14.272Z,25.72
2019-05-07T07:04:02.774Z,32.45
2019-05-07T07:06:33.100Z,28.77
2019-05-07T07:09:02.973Z,27.62
2019-05-07T07:11:38.911Z,24.18
2019-05-07T07:14:07.176Z,30.17
2019-05-07T07:16:35.429Z,26.25
2019-05-07T07:19:03.653Z,21.52
2019-05-07T07:21:32.683Z,24.30
2019-05-07T07:24:03.058Z,26.02
2019-05-07T07:26:32.808Z,27.25
2019-05-07T07:29:02.015Z,23.95
2019-05-07T07:31:32.094Z,24.05
2019-05-07T07:34:02.326Z,23.65
2019-05-07T07:36:32.364Z,21.20
2019-05-07T07:39:02.053Z,28.52
2019-05-07T07:41:42.140Z,24.63
2019-05-07T07:44:10.700Z,23.77
2019-05-07T07:46:38.929Z,23.38
2019-05-07T07:49:11.385Z,25.77
2019-05-07T07:51:41.729Z,26.52
2019-05-07T07:54:07.221Z,23.05
2019-05-07T07:56:50.006Z,23.77
2019-05-07T07:59:24.049Z,24.32
2019-05-07T08:01:53.913Z,20.10
2019-05-07T08:04:22.854Z,20.62
2019-05-07T08:07:03.243Z,22.62
2019-05-07T08:09:34.607Z,21.52
2019-05-07T08:12:03.183Z,19.62
2019-05-07T08:14:32.524Z,20.52
2019-05-07T08:17:02.570Z,21.90
2019-05-07T08:19:32.759Z,21.00
2019-05-07T08:22:02.812Z,22.42
2019-05-07T08:24:32.076Z,26.20
2019-05-07T08:27:02.337Z,27.62
2019-05-07T08:29:32.559Z,21.07
2019-05-07T08:32:04.788Z,22.02
2019-05-07T08:34:34.657Z,24.05
2019-05-07T08:37:02.632Z,25.43
2019-05-07T08:39:32.604Z,24.82
2019-05-07T08:42:02.106Z,23.38
2019-05-07T08:44:35.068Z,22.87
2019-05-07T08:47:22.825Z,20.23
2019-05-07T08:49:52.375Z,19.42
2019-05-07T08:52:22.704Z,22.87
2019-05-07T08:54:51.842Z,22.15
2019-05-07T08:57:22.581Z,20.80
2019-05-07T08:59:58.502Z,18.23
2019-05-07T09:02:22.251Z,24.12
2019-05-07T09:04:52.085Z,20.30
2019-05-07T09:07:21.892Z,17.87
2019-05-07T09:09:52.079Z,23.60
2019-05-07T09:12:19.948Z,25.57
2019-05-07T09:14:48.170Z,21.52
2019-05-07T09:17:16.407Z,19.55
2019-05-07T09:19:51.521Z,20.62
2019-05-07T09:22:14.579Z,25.00
2019-05-07T09:24:42.819Z,22.58
2019-05-07T09:27:27.946Z,21.35
2019-05-07T09:30:02.664Z,20.10
2019-05-07T09:32:42.534Z,22.35
2019-05-07T09:35:18.226Z,20.65
2019-05-07T09:37:46.427Z,18.10
2019-05-07T09:40:14.716Z,20.62
2019-05-07T09:42:42.957Z,19.57
2019-05-07T09:45:12.079Z,21.25
2019-05-07T09:47:41.779Z,18.57
2019-05-07T09:50:11.910Z,22.30
2019-05-07T09:55:51.531Z,18.52
2019-05-07T09:58:33.157Z,17.77
2019-05-07T10:00:49.469Z,17.65
2019-05-07T10:03:17.699Z,17.80
2019-05-07T10:05:45.932Z,15.88
2019-05-07T10:08:14.164Z,18.07
2019-05-07T10:10:43.685Z,18.40
2019-05-07T10:13:19.564Z,21.97
2019-05-07T10:15:47.785Z,21.20
2019-05-07T10:18:17.315Z,18.90
2019-05-07T10:20:45.543Z,19.42
2019-05-07T10:23:22.421Z,19.07
2019-05-07T10:25:50.733Z,18.12
2019-05-07T10:28:18.737Z,23.25
2019-05-07T10:30:46.974Z,21.97
2019-05-07T10:33:15.188Z,20.17
2019-05-07T10:35:43.537Z,23.87
2019-05-07T10:38:12.492Z,22.82
2019-05-07T10:40:40.916Z,24.07
2019-05-07T10:43:09.204Z,22.00
2019-05-07T10:45:45.025Z,21.77
2019-05-07T10:48:18.035Z,21.15
2019-05-07T10:50:56.822Z,21.57
2019-05-07T10:53:25.048Z,23.52
2019-05-07T10:55:53.269Z,22.87
2019-05-07T10:58:21.512Z,19.85
2019-05-07T11:00:52.194Z,21.00
2019-05-07T11:03:21.768Z,23.73
2019-05-07T11:05:49.900Z,21.37
2019-05-07T11:08:18.124Z,23.50
2019-05-07T11:10:46.348Z,21.50
2019-05-07T11:13:14.574Z,19.32
2019-05-07T11:15:44.433Z,20.57
2019-05-07T11:18:17.337Z,21.15
2019-05-07T11:20:50.298Z,20.43
2019-05-07T11:23:15.509Z,19.57
2019-05-07T11:25:43.729Z,26.65
2019-05-07T11:28:12.465Z,20.00
2019-05-07T11:30:42.520Z,22.05
2019-05-07T11:33:12.843Z,19.55
2019-05-07T11:35:42.295Z,25.32
2019-05-07T11:38:18.753Z,23.25
2019-05-07T11:40:42.726Z,22.35
2019-05-07T11:43:29.137Z,20.70
2019-05-07T11:46:17.448Z,24.55
2019-05-07T11:48:56.096Z,21.57
2019-05-07T11:51:37.656Z,24.98
2019-05-07T11:54:16.567Z,23.52
2019-05-07T11:56:44.780Z,21.33
2019-05-07T11:59:13.607Z,20.48
2019-05-07T12:01:47.834Z,19.50
2019-05-07T12:04:16.420Z,34.88
2019-05-07T12:06:44.631Z,24.15
2019-05-07T12:09:13.013Z,25.27
2019-05-07T12:11:42.564Z,26.02
2019-05-07T12:14:12.375Z,22.70
2019-05-07T12:16:42.545Z,21.20
2019-05-07T12:19:13.058Z,25.62
2019-05-07T12:21:42.184Z,24.57
2019-05-07T12:24:12.899Z,22.02
2019-05-07T12:26:41.827Z,26.37
2019-05-07T12:29:11.841Z,24.70
2019-05-07T12:31:55.642Z,21.85
2019-05-07T12:34:31.874Z,22.75
2019-05-07T12:37:01.687Z,24.67
2019-05-07T12:39:31.828Z,23.10
2019-05-07T12:42:00.275Z,24.07
2019-05-07T12:44:28.483Z,25.12
2019-05-07T12:46:56.718Z,23.38
2019-05-07T12:49:24.938Z,28.10
2019-05-07T12:51:54.825Z,21.97
2019-05-07T12:54:26.659Z,26.73
2019-05-07T12:56:54.877Z,23.42
2019-05-07T12:59:23.101Z,20.75
2019-05-07T13:01:55.917Z,20.60
2019-05-07T13:04:28.536Z,21.35
2019-05-07T13:06:58.404Z,22.25
2019-05-07T13:09:26.628Z,28.40
2019-05-07T13:11:54.868Z,23.62
2019-05-07T13:14:23.086Z,23.20
2019-05-07T13:16:52.224Z,22.87
2019-05-07T13:19:22.622Z,19.27
2019-05-07T13:21:50.796Z,19.45
2019-05-07T13:24:19.020Z,16.93
2019-05-07T13:26:47.283Z,19.32
2019-05-07T13:29:15.590Z,18.98
2019-05-07T13:31:43.805Z,19.32
2019-05-07T13:34:12.295Z,24.18
2019-05-07T13:36:42.280Z,17.95
2019-05-07T13:39:12.144Z,21.65
2019-05-07T13:41:42.012Z,22.42
2019-05-07T13:44:27.343Z,17.98
2019-05-07T13:47:13.445Z,17.90
2019-05-07T13:49:42.773Z,20.70
2019-05-07T13:52:11.781Z,21.40
2019-05-07T13:54:41.927Z,18.40
2019-05-07T13:57:12.013Z,15.23
2019-05-07T13:59:42.326Z,14.87
2019-05-07T14:02:15.173Z,19.30
2019-05-07T14:04:42.069Z,20.02
2019-05-07T14:07:12.510Z,24.00
2019-05-07T14:09:42.020Z,18.45
2019-05-07T14:12:12.156Z,16.12
2019-05-07T14:14:42.433Z,15.80
2019-05-07T14:17:10.097Z,17.35
2019-05-07T14:19:38.309Z,17.05
2019-05-07T14:22:15.212Z,17.42
2019-05-07T14:24:36.481Z,15.08
2019-05-07T14:27:04.704Z,16.65
2019-05-07T14:29:32.932Z,15.32
2019-05-07T14:32:02.760Z,17.52
2019-05-07T14:34:34.914Z,17.07
2019-05-07T14:37:06.926Z,13.13
2019-05-07T14:39:35.140Z,15.50
2019-05-07T14:42:07.794Z,16.65
2019-05-07T14:44:48.805Z,15.03
2019-05-07T14:47:19.033Z,15.90
2019-05-07T14:49:47.900Z,11.50
2019-05-07T14:52:28.953Z,14.03
2019-05-07T14:54:46.060Z,14.43
2019-05-07T14:57:14.268Z,18.67
2019-05-07T14:59:42.814Z,13.25
2019-05-07T15:02:12.090Z,15.93
2019-05-07T15:04:41.961Z,12.10
2019-05-07T15:07:12.023Z,19.05
2019-05-07T15:09:42.359Z,13.25
2019-05-07T15:12:12.363Z,16.00
2019-05-07T15:14:42.016Z,14.78
2019-05-07T15:17:14.848Z,17.70
2019-05-07T15:19:43.059Z,14.30
2019-05-07T15:22:23.688Z,15.90
2019-05-07T15:24:52.520Z,16.90
2019-05-07T15:27:22.781Z,12.20
2019-05-07T15:29:52.653Z,12.98
2019-05-07T15:32:21.823Z,13.55
2019-05-07T15:34:52.481Z,12.53
2019-05-07T15:37:20.165Z,15.40
2019-05-07T15:39:48.389Z,13.08
2019-05-07T15:42:16.592Z,16.42
2019-05-07T15:44:44.853Z,13.45
2019-05-07T15:47:14.702Z,15.75
2019-05-07T15:49:42.942Z,15.70
2019-05-07T15:52:15.513Z,14.85
2019-05-07T15:54:43.738Z,12.73
2019-05-07T16:00:06.892Z,12.80
2019-05-07T16:02:36.758Z,17.65
2019-05-07T16:05:05.940Z,159.12
2019-05-07T16:07:34.171Z,380.85
2019-05-07T16:10:02.389Z,473.50
2019-05-07T16:12:31.956Z,258.63
2019-05-07T16:15:00.424Z,63.80
2019-05-07T16:17:32.440Z,168.93
2019-05-07T16:20:00.223Z,15.95
2019-05-07T16:22:30.080Z,15.20
2019-05-07T16:24:58.326Z,14.45
2019-05-07T16:27:26.548Z,17.35
2019-05-07T16:29:54.781Z,14.73
2019-05-07T16:32:24.224Z,13.53
2019-05-07T16:34:52.787Z,12.00
2019-05-07T16:37:21.651Z,13.35
2019-05-07T16:39:50.074Z,15.18
2019-05-07T16:42:18.304Z,12.88
2019-05-07T16:44:46.532Z,14.50
2019-05-07T16:47:14.746Z,14.83
2019-05-07T16:49:42.976Z,10.93
2019-05-07T16:52:12.014Z,9.83
2019-05-07T16:54:42.658Z,14.58
2019-05-07T16:57:14.912Z,17.32
2019-05-07T16:59:43.146Z,10.95
2019-05-07T17:02:13.028Z,15.65
2019-05-07T17:04:42.866Z,12.05
2019-05-07T17:07:13.333Z,13.93
2019-05-07T17:12:12.467Z,9.53
2019-05-07T17:14:42.483Z,9.80
2019-05-07T17:17:12.083Z,7.70
2019-05-07T17:19:42.428Z,10.45
2019-05-07T17:22:12.103Z,9.20
2019-05-07T17:24:42.278Z,8.48
2019-05-07T17:27:11.929Z,11.35
2019-05-07T17:29:40.210Z,12.23
2019-05-07T17:32:12.158Z,12.13
2019-05-07T17:34:41.987Z,9.55
2019-05-07T17:37:12.501Z,13.85
2019-05-07T17:39:39.951Z,10.25
2019-05-07T17:42:08.160Z,10.23
2019-05-07T17:44:36.389Z,9.90
2019-05-07T17:47:04.971Z,8.68
2019-05-07T17:49:36.380Z,10.93
2019-05-07T17:52:03.208Z,12.33
2019-05-07T17:54:31.833Z,9.00
2019-05-07T17:57:02.021Z,12.05
2019-05-07T17:59:31.711Z,9.45
2019-05-07T18:02:04.693Z,9.28
2019-05-07T18:04:47.509Z,11.40
2019-05-07T18:07:04.304Z,11.40
2019-05-07T18:09:32.520Z,11.05
2019-05-07T18:12:00.752Z,11.55
2019-05-07T18:14:28.992Z,11.22
2019-05-07T18:16:58.844Z,14.80
2019-05-07T18:19:28.707Z,10.60
2019-05-07T18:21:56.918Z,14.03
2019-05-07T18:24:25.216Z,13.65
2019-05-07T18:26:53.419Z,12.07
2019-05-07T18:29:22.489Z,12.78
2019-05-07T18:31:55.240Z,13.50
2019-05-07T18:34:23.462Z,12.75
2019-05-07T18:36:53.040Z,13.35
2019-05-07T18:39:21.477Z,8.63
2019-05-07T18:41:49.698Z,11.53
2019-05-07T18:44:22.132Z,10.08
2019-05-07T18:46:49.473Z,15.28
2019-05-07T18:49:17.689Z,12.47
2019-05-07T18:51:45.920Z,12.50
2019-05-07T18:54:26.999Z,12.13
2019-05-07T18:56:44.100Z,12.65
2019-05-07T18:59:12.972Z,13.35
2019-05-07T19:01:42.961Z,14.80
2019-05-07T19:04:12.954Z,14.78
2019-05-07T19:06:42.401Z,9.78
2019-05-07T19:09:10.953Z,12.43
2019-05-07T19:11:39.175Z,9.28
2019-05-07T19:14:07.381Z,14.93
2019-05-07T19:16:35.628Z,14.95
2019-05-07T19:19:03.842Z,11.05
2019-05-07T19:21:32.137Z,11.73
2019-05-07T19:24:02.304Z,10.48
2019-05-07T19:26:30.344Z,13.35
2019-05-07T19:28:58.648Z,17.40
2019-05-07T19:31:26.854Z,17.32
2019-05-07T19:33:55.057Z,16.82
2019-05-07T19:36:23.273Z,13.93
2019-05-07T19:38:52.579Z,18.45
2019-05-07T19:41:20.964Z,14.50
2019-05-07T19:43:49.184Z,11.90
2019-05-07T19:46:17.392Z,13.08
2019-05-07T19:48:45.785Z,14.40
2019-05-07T19:51:13.995Z,16.25
2019-05-07T19:53:42.209Z,10.75
2019-05-07T19:56:14.723Z,10.00
2019-05-07T19:58:42.940Z,14.43
2019-05-07T20:01:12.551Z,12.13
2019-05-07T20:03:40.763Z,12.35
2019-05-07T20:06:08.987Z,10.40
2019-05-07T20:08:37.201Z,13.32
2019-05-07T20:11:11.925Z,10.70
2019-05-07T20:13:41.659Z,13.55
2019-05-07T20:16:14.436Z,12.33
2019-05-07T20:18:42.927Z,11.10
2019-05-07T20:21:12.370Z,8.98
2019-05-07T20:23:42.600Z,10.60
2019-05-07T20:26:12.579Z,12.18
2019-05-07T20:28:41.755Z,18.95
2019-05-07T20:31:12.172Z,15.55
2019-05-07T20:33:42.200Z,14.03
2019-05-07T20:36:10.115Z,15.10
2019-05-07T20:38:38.354Z,73.28
2019-05-07T20:41:06.609Z,26.00
2019-05-07T20:43:34.820Z,30.02
2019-05-07T20:46:03.040Z,32.13
2019-05-07T20:48:32.527Z,21.82
2019-05-07T20:51:00.972Z,26.02
2019-05-07T20:53:47.321Z,22.07
2019-05-07T20:56:17.167Z,19.92
2019-05-07T20:58:45.388Z,19.57
2019-05-07T21:01:13.620Z,20.68
2019-05-07T21:03:42.832Z,15.98
2019-05-07T21:06:11.303Z,17.45
2019-05-07T21:08:39.603Z,14.68
2019-05-07T21:11:07.888Z,17.12
2019-05-07T21:13:36.135Z,25.68
2019-05-07T21:16:04.341Z,17.55
2019-05-07T21:18:32.769Z,18.48
2019-05-07T21:21:02.141Z,14.58
2019-05-07T21:23:32.593Z,13.08
2019-05-07T21:26:02.148Z,17.80
2019-05-07T21:28:32.398Z,20.12
2019-05-07T21:31:02.779Z,17.62
2019-05-07T21:33:32.220Z,15.83
2019-05-07T21:36:02.714Z,14.23
2019-05-07T21:38:32.726Z,13.68
2019-05-07T21:41:00.556Z,19.60
2019-05-07T21:43:28.770Z,12.93
2019-05-07T21:45:57.024Z,15.00
2019-05-07T21:48:25.223Z,20.97
2019-05-07T21:50:54.212Z,17.98
2019-05-07T21:53:26.772Z,15.93
2019-05-07T21:56:13.804Z,14.43
2019-05-07T21:58:46.384Z,15.95
2019-05-07T22:01:18.972Z,17.20
2019-05-07T22:03:48.857Z,15.75
2019-05-07T22:06:17.057Z,16.40
2019-05-07T22:08:45.281Z,15.32
2019-05-07T22:11:13.507Z,17.82
2019-05-07T22:13:43.530Z,14.38
2019-05-07T22:16:13.075Z,16.20
2019-05-07T22:18:42.649Z,12.95
2019-05-07T22:21:12.398Z,11.85
2019-05-07T22:23:42.791Z,12.25
2019-05-07T22:26:20.206Z,11.75
2019-05-07T22:28:41.931Z,14.68
2019-05-07T22:31:21.184Z,20.90
2019-05-07T22:33:59.289Z,13.30
2019-05-07T22:36:26.698Z,13.05
2019-05-07T22:38:54.936Z,15.32
2019-05-07T22:41:23.163Z,9.50
2019-05-07T22:43:51.387Z,15.50
2019-05-07T22:46:22.073Z,12.15
2019-05-07T22:48:49.581Z,9.60
2019-05-07T22:51:17.864Z,12.13
2019-05-07T22:53:46.109Z,11.48
2019-05-07T22:56:14.322Z,14.90
2019-05-07T22:58:44.205Z,10.72
2019-05-07T23:01:14.041Z,10.60
2019-05-07T23:03:42.978Z,11.43
2019-05-07T23:06:12.265Z,12.78
2019-05-07T23:08:42.348Z,10.93
2019-05-07T23:11:12.186Z,11.95
2019-05-07T23:13:42.735Z,11.95
2019-05-07T23:16:12.574Z,12.10
2019-05-07T23:18:42.764Z,12.28
2019-05-07T23:21:10.620Z,12.53
2019-05-07T23:23:38.830Z,12.63
2019-05-07T23:26:07.039Z,11.35
2019-05-07T23:28:35.275Z,10.82
2019-05-07T23:31:03.495Z,12.95
2019-05-07T23:33:32.263Z,12.28
2019-05-07T23:36:02.199Z,9.23
2019-05-07T23:38:31.907Z,12.37
2019-05-07T23:41:14.065Z,16.82
2019-05-07T23:43:42.453Z,13.85
2019-05-07T23:46:12.752Z,11.95
2019-05-07T23:48:42.646Z,10.40
2019-05-07T23:51:12.520Z,12.25
2019-05-07T23:53:44.134Z,13.48
2019-05-07T23:56:10.465Z,10.55
2019-05-07T23:58:38.686Z,13.90
